sensor_id;sensor_type;location;lat;lon;timestamp;pressure;altitude;pressure_sealevel;temperature;humidity
63399;BME280;49533;-34.520;150.798;2023-07-20T00:01:52;100862.34;;;14.91;41.94
63399;BME280;49533;-34.520;150.798;2023-07-20T00:04:20;100912.03;;;15.31;42.29
63399;BME280;49533;-34.520;150.798;2023-07-20T00:06:50;100855.97;;;15.08;42.16
63399;BME280;49533;-34.520;150.798;2023-07-20T00:09:17;100896.88;;;15.42;41.79
63399;BME280;49533;-34.520;150.798;2023-07-20T00:11:51;100892.00;;;15.48;41.84
63399;BME280;49533;-34.520;150.798;2023-07-20T00:14:18;100859.22;;;15.31;41.67
63399;BME280;49533;-34.520;150.798;2023-07-20T00:16:46;100878.19;;;15.44;41.42
63399;BME280;49533;-34.520;150.798;2023-07-20T00:19:15;100828.31;;;15.30;41.50
63399;BME280;49533;-34.520;150.798;2023-07-20T00:21:42;100870.19;;;15.60;41.18
63399;BME280;49533;-34.520;150.798;2023-07-20T00:24:09;100793.91;;;15.20;40.59
63399;BME280;49533;-34.520;150.798;2023-07-20T00:26:36;100857.88;;;15.66;40.86
63399;BME280;49533;-34.520;150.798;2023-07-20T00:29:03;100852.88;;;15.69;40.76
63399;BME280;49533;-34.520;150.798;2023-07-20T00:31:30;100758.41;;;15.12;40.52
63399;BME280;49533;-34.520;150.798;2023-07-20T00:33:58;100789.22;;;15.30;40.43
63399;BME280;49533;-34.520;150.798;2023-07-20T00:36:25;100816.91;;;15.49;40.38
63399;BME280;49533;-34.520;150.798;2023-07-20T00:38:53;100816.91;;;15.49;40.49
63399;BME280;49533;-34.520;150.798;2023-07-20T00:41:20;100840.00;;;15.69;39.98
63399;BME280;49533;-34.520;150.798;2023-07-20T00:43:47;100821.88;;;15.56;40.21
63399;BME280;49533;-34.520;150.798;2023-07-20T00:46:14;100838.06;;;15.70;40.07
63399;BME280;49533;-34.520;150.798;2023-07-20T00:48:42;100815.59;;;15.55;40.18
63399;BME280;49533;-34.520;150.798;2023-07-20T00:51:09;100762.03;;;15.25;39.80
63399;BME280;49533;-34.520;150.798;2023-07-20T00:53:37;100817.16;;;15.65;39.56
63399;BME280;49533;-34.520;150.798;2023-07-20T00:56:04;100768.22;;;15.34;39.53
63399;BME280;49533;-34.520;150.798;2023-07-20T00:58:34;100765.63;;;15.37;39.39
63399;BME280;49533;-34.520;150.798;2023-07-20T01:01:01;100803.91;;;15.67;39.29
63399;BME280;49533;-34.520;150.798;2023-07-20T01:03:28;100738.50;;;15.23;39.44
63399;BME280;49533;-34.520;150.798;2023-07-20T01:06:14;100790.59;;;15.57;39.25
63399;BME280;49533;-34.520;150.798;2023-07-20T01:11:36;100799.53;;;15.75;38.67
63399;BME280;49533;-34.520;150.798;2023-07-20T01:14:05;100764.44;;;15.47;38.38
63399;BME280;49533;-34.520;150.798;2023-07-20T01:16:33;100736.19;;;15.34;37.79
63399;BME280;49533;-34.520;150.798;2023-07-20T01:19:00;100788.59;;;15.75;37.47
63399;BME280;49533;-34.520;150.798;2023-07-20T01:21:37;100778.75;;;15.74;37.31
63399;BME280;49533;-34.520;150.798;2023-07-20T01:24:32;100641.84;;;14.90;37.45
63399;BME280;49533;-34.520;150.798;2023-07-20T01:27:32;100695.47;;;15.33;37.11
63399;BME280;49533;-34.520;150.798;2023-07-20T01:30:59;100753.97;;;15.70;37.20
63399;BME280;49533;-34.520;150.798;2023-07-20T01:33:01;100729.16;;;15.66;36.99
63399;BME280;49533;-34.520;150.798;2023-07-20T01:35:29;100719.81;;;15.68;36.75
63399;BME280;49533;-34.520;150.798;2023-07-20T01:37:58;100741.59;;;15.85;36.68
63399;BME280;49533;-34.520;150.798;2023-07-20T01:40:27;100703.22;;;15.64;37.02
63399;BME280;49533;-34.520;150.798;2023-07-20T01:42:55;100709.59;;;15.77;36.72
63399;BME280;49533;-34.520;150.798;2023-07-20T01:45:22;100567.09;;;14.86;36.69
63399;BME280;49533;-34.520;150.798;2023-07-20T01:47:49;100656.09;;;15.58;36.68
63399;BME280;49533;-34.520;150.798;2023-07-20T01:50:16;100689.06;;;15.83;36.88
63399;BME280;49533;-34.520;150.798;2023-07-20T01:52:43;100691.97;;;15.99;37.13
63399;BME280;49533;-34.520;150.798;2023-07-20T01:55:10;100685.78;;;16.02;36.67
63399;BME280;49533;-34.520;150.798;2023-07-20T01:57:38;100660.31;;;15.89;36.41
63399;BME280;49533;-34.520;150.798;2023-07-20T02:00:06;100665.72;;;15.98;36.54
63399;BME280;49533;-34.520;150.798;2023-07-20T02:02:33;100490.72;;;14.93;36.57
63399;BME280;49533;-34.520;150.798;2023-07-20T02:05:00;100603.16;;;15.66;36.75
63399;BME280;49533;-34.520;150.798;2023-07-20T02:07:27;100657.16;;;16.12;36.75
63399;BME280;49533;-34.520;150.798;2023-07-20T02:09:54;100573.25;;;15.61;36.60
63399;BME280;49533;-34.520;150.798;2023-07-20T02:12:21;100641.97;;;16.14;36.74
63399;BME280;49533;-34.520;150.798;2023-07-20T02:14:49;100585.66;;;15.80;36.53
63399;BME280;49533;-34.520;150.798;2023-07-20T02:17:20;100567.34;;;15.72;36.69
63399;BME280;49533;-34.520;150.798;2023-07-20T02:19:50;100592.28;;;15.91;36.86
63399;BME280;49533;-34.520;150.798;2023-07-20T02:22:17;100616.28;;;16.19;36.43
63399;BME280;49533;-34.520;150.798;2023-07-20T02:24:44;100615.13;;;16.20;36.47
63399;BME280;49533;-34.520;150.798;2023-07-20T02:27:11;100578.13;;;16.01;36.42
63399;BME280;49533;-34.520;150.798;2023-07-20T02:29:40;100570.38;;;16.03;36.51
63399;BME280;49533;-34.520;150.798;2023-07-20T02:32:08;100566.94;;;16.06;36.59
63399;BME280;49533;-34.520;150.798;2023-07-20T02:34:36;100589.41;;;16.24;36.55
63399;BME280;49533;-34.520;150.798;2023-07-20T02:37:03;100581.66;;;16.26;36.47
63399;BME280;49533;-34.520;150.798;2023-07-20T02:39:30;100571.94;;;16.17;36.79
63399;BME280;49533;-34.520;150.798;2023-07-20T02:41:57;100566.25;;;16.22;36.73
63399;BME280;49533;-34.520;150.798;2023-07-20T02:44:25;100545.00;;;16.19;36.54
63399;BME280;49533;-34.520;150.798;2023-07-20T02:46:52;100514.16;;;16.09;36.46
63399;BME280;49533;-34.520;150.798;2023-07-20T02:49:19;100545.78;;;16.32;36.17
63399;BME280;49533;-34.520;150.798;2023-07-20T02:51:46;100531.72;;;16.33;36.03
63399;BME280;49533;-34.520;150.798;2023-07-20T02:54:14;100522.38;;;16.34;36.39
63399;BME280;49533;-34.520;150.798;2023-07-20T02:56:41;100463.16;;;15.93;36.79
63399;BME280;49533;-34.520;150.798;2023-07-20T02:59:08;100477.16;;;16.16;36.55
63399;BME280;49533;-34.520;150.798;2023-07-20T03:01:35;100435.75;;;15.93;36.17
63399;BME280;49533;-34.520;150.798;2023-07-20T03:04:02;100492.75;;;16.40;36.34
63399;BME280;49533;-34.520;150.798;2023-07-20T03:06:30;100431.38;;;16.04;35.79
63399;BME280;49533;-34.520;150.798;2023-07-20T03:08:57;100411.53;;;15.95;35.96
63399;BME280;49533;-34.520;150.798;2023-07-20T03:11:24;100481.88;;;16.43;36.12
63399;BME280;49533;-34.520;150.798;2023-07-20T03:13:51;100419.03;;;16.10;36.08
63399;BME280;49533;-34.520;150.798;2023-07-20T03:16:20;100400.00;;;16.01;36.03
63399;BME280;49533;-34.520;150.798;2023-07-20T03:18:47;100412.75;;;16.09;36.04
63399;BME280;49533;-34.520;150.798;2023-07-20T03:21:14;100405.78;;;16.12;36.12
63399;BME280;49533;-34.520;150.798;2023-07-20T03:23:42;100442.09;;;16.49;36.14
63399;BME280;49533;-34.520;150.798;2023-07-20T03:26:09;100430.03;;;16.38;35.61
63399;BME280;49533;-34.520;150.798;2023-07-20T03:28:36;100435.13;;;16.52;35.90
63399;BME280;49533;-34.520;150.798;2023-07-20T03:31:04;100391.47;;;16.31;36.21
63399;BME280;49533;-34.520;150.798;2023-07-20T03:33:31;100439.91;;;16.55;36.19
63399;BME280;49533;-34.520;150.798;2023-07-20T03:36:00;100389.06;;;16.29;35.71
63399;BME280;49533;-34.520;150.798;2023-07-20T03:38:27;100413.28;;;16.56;36.33
63399;BME280;49533;-34.520;150.798;2023-07-20T03:40:57;100408.25;;;16.58;35.92
63399;BME280;49533;-34.520;150.798;2023-07-20T03:43:26;100385.34;;;16.38;36.11
63399;BME280;49533;-34.520;150.798;2023-07-20T03:45:54;100393.38;;;16.59;35.99
63399;BME280;49533;-34.520;150.798;2023-07-20T03:48:24;100368.13;;;16.37;35.66
63399;BME280;49533;-34.520;150.798;2023-07-20T03:50:53;100347.13;;;16.29;35.72
63399;BME280;49533;-34.520;150.798;2023-07-20T03:53:20;100327.53;;;16.15;35.86
63399;BME280;49533;-34.520;150.798;2023-07-20T03:55:49;100377.81;;;16.63;35.78
63399;BME280;49533;-34.520;150.798;2023-07-20T03:58:18;100368.88;;;16.66;35.62
63399;BME280;49533;-34.520;150.798;2023-07-20T04:00:47;100363.38;;;16.66;35.81
63399;BME280;49533;-34.520;150.798;2023-07-20T04:03:15;100327.00;;;16.53;35.76
63399;BME280;49533;-34.520;150.798;2023-07-20T04:05:43;100284.44;;;16.27;35.59
63399;BME280;49533;-34.520;150.798;2023-07-20T04:08:10;100342.34;;;16.70;35.37
63399;BME280;49533;-34.520;150.798;2023-07-20T04:10:38;100335.34;;;16.72;35.26
63399;BME280;49533;-34.520;150.798;2023-07-20T04:13:05;100303.69;;;16.59;35.28
63399;BME280;49533;-34.520;150.798;2023-07-20T04:15:33;100260.03;;;16.38;35.32
63399;BME280;49533;-34.520;150.798;2023-07-20T04:18:00;100274.91;;;16.53;35.49
63399;BME280;49533;-34.520;150.798;2023-07-20T04:20:28;100308.00;;;16.76;35.33
63399;BME280;49533;-34.520;150.798;2023-07-20T04:22:55;100261.56;;;16.51;35.32
63399;BME280;49533;-34.520;150.798;2023-07-20T04:25:22;100294.47;;;16.67;35.16
63399;BME280;49533;-34.520;150.798;2023-07-20T04:27:49;100239.16;;;16.34;35.24
63399;BME280;49533;-34.520;150.798;2023-07-20T04:30:18;100241.53;;;16.35;35.19
63399;BME280;49533;-34.520;150.798;2023-07-20T04:32:47;100234.09;;;16.36;35.39
63399;BME280;49533;-34.520;150.798;2023-07-20T04:35:44;100302.28;;;16.81;35.39
63399;BME280;49533;-34.520;150.798;2023-07-20T04:38:04;100301.56;;;16.84;34.58
63399;BME280;49533;-34.520;150.798;2023-07-20T04:40:31;100310.25;;;16.86;34.18
63399;BME280;49533;-34.520;150.798;2023-07-20T04:42:58;100282.53;;;16.60;33.87
63399;BME280;49533;-34.520;150.798;2023-07-20T04:45:25;100330.34;;;16.90;33.72
63399;BME280;49533;-34.520;150.798;2023-07-20T04:47:52;100307.31;;;16.79;33.32
63399;BME280;49533;-34.520;150.798;2023-07-20T04:50:19;100321.75;;;16.92;33.40
63399;BME280;49533;-34.520;150.798;2023-07-20T04:52:47;100303.44;;;16.80;33.54
63399;BME280;49533;-34.520;150.798;2023-07-20T04:55:14;100317.16;;;16.96;33.55
63399;BME280;49533;-34.520;150.798;2023-07-20T04:57:41;100281.72;;;16.75;33.31
63399;BME280;49533;-34.520;150.798;2023-07-20T05:00:09;100312.91;;;16.99;33.34
63399;BME280;49533;-34.520;150.798;2023-07-20T05:02:40;100313.69;;;16.99;33.48
63399;BME280;49533;-34.520;150.798;2023-07-20T05:05:07;100319.63;;;17.01;33.61
63399;BME280;49533;-34.520;150.798;2023-07-20T05:07:35;100255.81;;;16.72;33.47
63399;BME280;49533;-34.520;150.798;2023-07-20T05:10:02;100303.22;;;17.05;33.74
63399;BME280;49533;-34.520;150.798;2023-07-20T05:12:29;100193.09;;;16.39;33.85
63399;BME280;49533;-34.520;150.798;2023-07-20T05:14:56;100289.16;;;17.06;33.77
63399;BME280;49533;-34.520;150.798;2023-07-20T05:17:23;100278.81;;;17.00;33.61
63399;BME280;49533;-34.520;150.798;2023-07-20T05:19:51;100304.56;;;17.11;33.88
63399;BME280;49533;-34.520;150.798;2023-07-20T05:22:18;100274.47;;;16.99;34.04
63399;BME280;49533;-34.520;150.798;2023-07-20T05:24:45;100271.00;;;17.02;33.94
63399;BME280;49533;-34.520;150.798;2023-07-20T05:27:13;100281.72;;;17.07;33.72
63399;BME280;49533;-34.520;150.798;2023-07-20T05:29:45;100290.56;;;17.16;33.69
63399;BME280;49533;-34.520;150.798;2023-07-20T05:32:13;100282.41;;;17.20;33.66
63399;BME280;49533;-34.520;150.798;2023-07-20T05:34:40;100268.88;;;17.11;33.94
63399;BME280;49533;-34.520;150.798;2023-07-20T05:37:07;100251.53;;;17.07;33.80
63399;BME280;49533;-34.520;150.798;2023-07-20T05:39:34;100207.47;;;16.84;33.67
63399;BME280;49533;-34.520;150.798;2023-07-20T05:42:01;100242.44;;;17.03;33.95
63399;BME280;49533;-34.520;150.798;2023-07-20T05:44:28;100272.03;;;17.29;33.98
63399;BME280;49533;-34.520;150.798;2023-07-20T05:46:55;100254.16;;;17.19;34.26
63399;BME280;49533;-34.520;150.798;2023-07-20T05:49:22;100240.78;;;17.17;33.90
63399;BME280;49533;-34.520;150.798;2023-07-20T05:51:49;100211.28;;;16.95;34.14
63399;BME280;49533;-34.520;150.798;2023-07-20T05:54:16;100265.09;;;17.35;33.97
63399;BME280;49533;-34.520;150.798;2023-07-20T05:56:45;100249.97;;;17.25;34.23
63399;BME280;49533;-34.520;150.798;2023-07-20T05:59:13;100222.56;;;17.09;34.04
63399;BME280;49533;-34.520;150.798;2023-07-20T06:01:40;100261.28;;;17.39;34.15
63399;BME280;49533;-34.520;150.798;2023-07-20T06:04:07;100271.91;;;17.41;34.48
63399;BME280;49533;-34.520;150.798;2023-07-20T06:06:34;100228.94;;;17.13;34.05
63399;BME280;49533;-34.520;150.798;2023-07-20T06:09:02;100225.97;;;17.22;34.49
63399;BME280;49533;-34.520;150.798;2023-07-20T06:11:31;100265.31;;;17.46;34.57
63399;BME280;49533;-34.520;150.798;2023-07-20T06:13:58;100257.91;;;17.46;34.52
63399;BME280;49533;-34.520;150.798;2023-07-20T06:16:25;100252.81;;;17.48;34.73
63399;BME280;49533;-34.520;150.798;2023-07-20T06:18:52;100224.34;;;17.37;34.70
63399;BME280;49533;-34.520;150.798;2023-07-20T06:21:19;100229.84;;;17.37;34.73
63399;BME280;49533;-34.520;150.798;2023-07-20T06:23:46;100170.19;;;16.99;34.79
63399;BME280;49533;-34.520;150.798;2023-07-20T06:26:14;100245.41;;;17.49;34.95
63399;BME280;49533;-34.520;150.798;2023-07-20T06:28:41;100237.50;;;17.47;34.69
63399;BME280;49533;-34.520;150.798;2023-07-20T06:31:09;100209.38;;;17.34;34.80
63399;BME280;49533;-34.520;150.798;2023-07-20T06:33:36;100221.16;;;17.35;34.90
63399;BME280;49533;-34.520;150.798;2023-07-20T06:36:04;100235.94;;;17.46;34.91
63399;BME280;49533;-34.520;150.798;2023-07-20T06:38:31;100218.78;;;17.33;35.12
63399;BME280;49533;-34.520;150.798;2023-07-20T06:40:58;100217.19;;;17.32;34.80
63399;BME280;49533;-34.520;150.798;2023-07-20T06:43:25;100202.44;;;17.21;35.22
63399;BME280;49533;-34.520;150.798;2023-07-20T06:45:52;100191.22;;;17.10;34.83
63399;BME280;49533;-34.520;150.798;2023-07-20T06:48:20;100123.75;;;16.74;34.96
63399;BME280;49533;-34.520;150.798;2023-07-20T06:50:47;100199.25;;;17.19;34.89
63399;BME280;49533;-34.520;150.798;2023-07-20T06:53:14;100201.44;;;17.29;35.15
63399;BME280;49533;-34.520;150.798;2023-07-20T06:55:42;100198.97;;;17.24;34.78
63399;BME280;49533;-34.520;150.798;2023-07-20T06:58:10;100207.22;;;17.24;34.96
63399;BME280;49533;-34.520;150.798;2023-07-20T07:00:38;100239.25;;;17.55;35.27
63399;BME280;49533;-34.520;150.798;2023-07-20T07:03:06;100197.97;;;17.32;35.32
63399;BME280;49533;-34.520;150.798;2023-07-20T07:05:36;100246.06;;;17.62;34.87
63399;BME280;49533;-34.520;150.798;2023-07-20T07:08:05;100252.78;;;17.64;35.22
63399;BME280;49533;-34.520;150.798;2023-07-20T07:10:34;100244.94;;;17.66;35.24
63399;BME280;49533;-34.520;150.798;2023-07-20T07:13:01;100191.63;;;17.28;35.16
63399;BME280;49533;-34.520;150.798;2023-07-20T07:15:28;100215.97;;;17.49;35.01
63399;BME280;49533;-34.520;150.798;2023-07-20T07:17:55;100171.81;;;17.19;35.39
63399;BME280;49533;-34.520;150.798;2023-07-20T07:20:23;100200.41;;;17.37;35.52
63399;BME280;49533;-34.520;150.798;2023-07-20T07:22:50;100263.19;;;17.74;35.19
63399;BME280;49533;-34.520;150.798;2023-07-20T07:25:18;100247.28;;;17.64;35.32
63399;BME280;49533;-34.520;150.798;2023-07-20T07:27:46;100261.66;;;17.77;35.31
63399;BME280;49533;-34.520;150.798;2023-07-20T07:30:13;100179.75;;;17.24;35.16
63399;BME280;49533;-34.520;150.798;2023-07-20T07:32:41;100248.13;;;17.68;35.07
63399;BME280;49533;-34.520;150.798;2023-07-20T07:35:08;100258.41;;;17.71;35.23
63399;BME280;49533;-34.520;150.798;2023-07-20T07:37:35;100252.41;;;17.66;35.26
63399;BME280;49533;-34.520;150.798;2023-07-20T07:40:03;100262.31;;;17.70;35.28
63399;BME280;49533;-34.520;150.798;2023-07-20T07:42:32;100279.81;;;17.81;35.37
63399;BME280;49533;-34.520;150.798;2023-07-20T07:44:59;100283.00;;;17.84;35.29
63399;BME280;49533;-34.520;150.798;2023-07-20T07:47:26;100249.16;;;17.60;35.37
63399;BME280;49533;-34.520;150.798;2023-07-20T07:49:53;100284.78;;;17.76;35.45
63399;BME280;49533;-34.520;150.798;2023-07-20T07:52:20;100258.28;;;17.64;35.41
63399;BME280;49533;-34.520;150.798;2023-07-20T07:54:47;100273.53;;;17.62;35.57
63399;BME280;49533;-34.520;150.798;2023-07-20T07:57:14;100287.72;;;17.83;35.59
63399;BME280;49533;-34.520;150.798;2023-07-20T07:59:41;100259.69;;;17.58;35.54
63399;BME280;49533;-34.520;150.798;2023-07-20T08:02:08;100295.53;;;17.81;35.50
63399;BME280;49533;-34.520;150.798;2023-07-20T08:04:37;100307.41;;;17.85;35.29
63399;BME280;49533;-34.520;150.798;2023-07-20T08:07:05;100276.91;;;17.55;35.15
63399;BME280;49533;-34.520;150.798;2023-07-20T08:09:32;100285.03;;;17.67;35.45
63399;BME280;49533;-34.520;150.798;2023-07-20T08:11:59;100333.28;;;17.84;34.81
63399;BME280;49533;-34.520;150.798;2023-07-20T08:14:26;100311.75;;;17.70;34.90
63399;BME280;49533;-34.520;150.798;2023-07-20T08:16:53;100294.28;;;17.59;34.70
63399;BME280;49533;-34.520;150.798;2023-07-20T08:19:20;100287.81;;;17.51;35.05
63399;BME280;49533;-34.520;150.798;2023-07-20T08:21:48;100309.06;;;17.54;35.25
63399;BME280;49533;-34.520;150.798;2023-07-20T08:24:18;100359.53;;;17.81;35.17
63399;BME280;49533;-34.520;150.798;2023-07-20T08:26:45;100370.88;;;17.80;34.93
63399;BME280;49533;-34.520;150.798;2023-07-20T08:29:12;100361.47;;;17.81;35.10
63399;BME280;49533;-34.520;150.798;2023-07-20T08:31:42;100322.31;;;17.49;34.96
63399;BME280;49533;-34.520;150.798;2023-07-20T08:34:09;100368.47;;;17.78;35.18
63399;BME280;49533;-34.520;150.798;2023-07-20T08:36:37;100372.72;;;17.76;35.21
63399;BME280;49533;-34.520;150.798;2023-07-20T08:39:04;100344.28;;;17.49;35.15
63399;BME280;49533;-34.520;150.798;2023-07-20T08:41:32;100318.16;;;17.39;35.43
63399;BME280;49533;-34.520;150.798;2023-07-20T08:43:59;100334.34;;;17.44;35.27
63399;BME280;49533;-34.520;150.798;2023-07-20T08:46:29;100346.66;;;17.50;35.19
63399;BME280;49533;-34.520;150.798;2023-07-20T08:48:56;100337.72;;;17.37;35.37
63399;BME280;49533;-34.520;150.798;2023-07-20T08:51:25;100368.84;;;17.61;35.32
63399;BME280;49533;-34.520;150.798;2023-07-20T08:53:52;100377.53;;;17.63;35.46
63399;BME280;49533;-34.520;150.798;2023-07-20T08:56:20;100378.25;;;17.60;35.49
63399;BME280;49533;-34.520;150.798;2023-07-20T08:58:48;100404.03;;;17.71;35.29
63399;BME280;49533;-34.520;150.798;2023-07-20T09:01:15;100367.09;;;17.53;35.47
63399;BME280;49533;-34.520;150.798;2023-07-20T09:03:45;100309.28;;;17.10;35.32
63399;BME280;49533;-34.520;150.798;2023-07-20T09:06:18;100359.69;;;17.37;35.42
63399;BME280;49533;-34.520;150.798;2023-07-20T09:08:46;100326.88;;;17.09;35.53
63399;BME280;49533;-34.520;150.798;2023-07-20T09:11:13;100397.59;;;17.48;35.62
63399;BME280;49533;-34.520;150.798;2023-07-20T09:13:41;100381.94;;;17.32;35.06
63399;BME280;49533;-34.520;150.798;2023-07-20T09:16:12;100435.06;;;17.72;35.48
63399;BME280;49533;-34.520;150.798;2023-07-20T09:18:41;100385.19;;;17.38;35.62
63399;BME280;49533;-34.520;150.798;2023-07-20T09:21:08;100401.06;;;17.45;35.46
63399;BME280;49533;-34.520;150.798;2023-07-20T09:23:37;100446.50;;;17.58;35.56
63399;BME280;49533;-34.520;150.798;2023-07-20T09:26:11;100440.31;;;17.45;35.53
63399;BME280;49533;-34.520;150.798;2023-07-20T09:28:43;100398.97;;;17.06;35.58
63399;BME280;49533;-34.520;150.798;2023-07-20T09:31:17;100377.19;;;16.98;35.54
63399;BME280;49533;-34.520;150.798;2023-07-20T09:33:47;100351.59;;;16.78;35.29
63399;BME280;49533;-34.520;150.798;2023-07-20T09:36:14;100390.19;;;17.01;35.35
63399;BME280;49533;-34.520;150.798;2023-07-20T09:38:43;100468.94;;;17.44;34.93
63399;BME280;49533;-34.520;150.798;2023-07-20T09:41:15;100432.28;;;17.21;34.97
63399;BME280;49533;-34.520;150.798;2023-07-20T09:43:43;100424.44;;;17.23;35.31
63399;BME280;49533;-34.520;150.798;2023-07-20T09:46:12;100464.22;;;17.45;34.63
63399;BME280;49533;-34.520;150.798;2023-07-20T09:48:39;100475.22;;;17.45;34.32
63399;BME280;49533;-34.520;150.798;2023-07-20T09:51:07;100437.19;;;17.15;34.26
63399;BME280;49533;-34.520;150.798;2023-07-20T09:53:35;100479.91;;;17.44;34.55
63399;BME280;49533;-34.520;150.798;2023-07-20T09:56:02;100484.19;;;17.42;34.17
63399;BME280;49533;-34.520;150.798;2023-07-20T09:58:32;100486.56;;;17.43;33.70
63399;BME280;49533;-34.520;150.798;2023-07-20T10:01:03;100469.72;;;17.29;34.14
63399;BME280;49533;-34.520;150.798;2023-07-20T10:03:36;100489.28;;;17.43;34.35
63399;BME280;49533;-34.520;150.798;2023-07-20T10:06:06;100470.44;;;17.42;33.69
63399;BME280;49533;-34.520;150.798;2023-07-20T10:08:39;100452.81;;;17.27;33.62
63399;BME280;49533;-34.520;150.798;2023-07-20T10:11:08;100471.56;;;17.41;33.87
63399;BME280;49533;-34.520;150.798;2023-07-20T10:13:38;100432.16;;;17.17;33.34
63399;BME280;49533;-34.520;150.798;2023-07-20T10:16:10;100428.53;;;17.13;33.74
63399;BME280;49533;-34.520;150.798;2023-07-20T10:18:50;100438.38;;;17.14;34.33
63399;BME280;49533;-34.520;150.798;2023-07-20T10:21:20;100426.66;;;17.17;34.08
63399;BME280;49533;-34.520;150.798;2023-07-20T10:23:49;100458.38;;;17.30;33.88
63399;BME280;49533;-34.520;150.798;2023-07-20T10:26:17;100466.72;;;17.34;34.29
63399;BME280;49533;-34.520;150.798;2023-07-20T10:28:44;100422.59;;;16.95;33.16
63399;BME280;49533;-34.520;150.798;2023-07-20T10:31:14;100467.06;;;17.32;33.33
63399;BME280;49533;-34.520;150.798;2023-07-20T10:33:43;100425.75;;;16.97;33.47
63399;BME280;49533;-34.520;150.798;2023-07-20T10:36:10;100454.56;;;17.19;33.85
63399;BME280;49533;-34.520;150.798;2023-07-20T10:38:56;100446.25;;;17.15;33.69
63399;BME280;49533;-34.520;150.798;2023-07-20T10:41:34;100473.88;;;17.23;33.92
63399;BME280;49533;-34.520;150.798;2023-07-20T10:44:02;100434.97;;;16.89;33.89
63399;BME280;49533;-34.520;150.798;2023-07-20T10:49:14;100495.03;;;17.22;33.46
63399;BME280;49533;-34.520;150.798;2023-07-20T10:51:43;100435.59;;;16.82;34.17
63399;BME280;49533;-34.520;150.798;2023-07-20T10:54:33;100442.50;;;16.92;34.02
63399;BME280;49533;-34.520;150.798;2023-07-20T10:57:21;100461.75;;;17.08;33.88
63399;BME280;49533;-34.520;150.798;2023-07-20T10:59:48;100425.03;;;16.84;33.15
63399;BME280;49533;-34.520;150.798;2023-07-20T11:02:18;100479.09;;;17.12;33.31
63399;BME280;49533;-34.520;150.798;2023-07-20T11:04:47;100475.91;;;17.10;33.58
63399;BME280;49533;-34.520;150.798;2023-07-20T11:07:16;100485.28;;;17.09;33.00
63399;BME280;49533;-34.520;150.798;2023-07-20T11:09:44;100451.44;;;16.89;32.88
63399;BME280;49533;-34.520;150.798;2023-07-20T11:12:15;100443.38;;;16.80;32.49
63399;BME280;49533;-34.520;150.798;2023-07-20T11:14:52;100483.50;;;17.01;32.66
63399;BME280;49533;-34.520;150.798;2023-07-20T11:17:20;100462.22;;;16.82;33.52
63399;BME280;49533;-34.520;150.798;2023-07-20T11:19:49;100433.84;;;16.62;33.08
63399;BME280;49533;-34.520;150.798;2023-07-20T11:22:17;100490.84;;;16.97;33.21
63399;BME280;49533;-34.520;150.798;2023-07-20T11:24:44;100466.13;;;16.81;32.68
63399;BME280;49533;-34.520;150.798;2023-07-20T11:27:12;100484.47;;;16.92;32.60
63399;BME280;49533;-34.520;150.798;2023-07-20T11:29:39;100426.53;;;16.53;32.37
63399;BME280;49533;-34.520;150.798;2023-07-20T11:32:06;100435.34;;;16.59;32.53
63399;BME280;49533;-34.520;150.798;2023-07-20T11:34:34;100478.88;;;16.89;32.41
63399;BME280;49533;-34.520;150.798;2023-07-20T11:37:01;100467.38;;;16.71;32.55
63399;BME280;49533;-34.520;150.798;2023-07-20T11:39:30;100480.38;;;16.86;32.93
63399;BME280;49533;-34.520;150.798;2023-07-20T11:41:58;100391.25;;;16.24;32.54
63399;BME280;49533;-34.520;150.798;2023-07-20T11:44:27;100461.69;;;16.64;32.84
63399;BME280;49533;-34.520;150.798;2023-07-20T11:47:02;100482.47;;;16.77;32.80
63399;BME280;49533;-34.520;150.798;2023-07-20T11:49:34;100487.50;;;16.75;32.84
63399;BME280;49533;-34.520;150.798;2023-07-20T11:52:04;100469.56;;;16.78;32.84
63399;BME280;49533;-34.520;150.798;2023-07-20T11:54:33;100481.34;;;16.78;32.83
63399;BME280;49533;-34.520;150.798;2023-07-20T11:57:02;100423.34;;;16.23;33.07
63399;BME280;49533;-34.520;150.798;2023-07-20T11:59:29;100491.06;;;16.63;32.96
63399;BME280;49533;-34.520;150.798;2023-07-20T12:02:00;100470.31;;;16.50;32.76
63399;BME280;49533;-34.520;150.798;2023-07-20T12:04:30;100449.88;;;16.47;32.84
63399;BME280;49533;-34.520;150.798;2023-07-20T12:06:59;100479.06;;;16.68;33.33
63399;BME280;49533;-34.520;150.798;2023-07-20T12:09:26;100413.81;;;16.33;33.34
63399;BME280;49533;-34.520;150.798;2023-07-20T12:11:53;100382.81;;;16.17;33.00
63399;BME280;49533;-34.520;150.798;2023-07-20T12:14:20;100453.38;;;16.60;32.76
63399;BME280;49533;-34.520;150.798;2023-07-20T12:16:53;100417.72;;;16.32;32.60
63399;BME280;49533;-34.520;150.798;2023-07-20T12:19:21;100449.28;;;16.54;32.43
63399;BME280;49533;-34.520;150.798;2023-07-20T12:21:57;100397.53;;;16.24;32.63
63399;BME280;49533;-34.520;150.798;2023-07-20T12:24:26;100440.25;;;16.53;32.75
63399;BME280;49533;-34.520;150.798;2023-07-20T12:26:56;100432.75;;;16.38;32.78
63399;BME280;49533;-34.520;150.798;2023-07-20T12:29:24;100376.38;;;15.97;32.90
63399;BME280;49533;-34.520;150.798;2023-07-20T12:31:52;100451.47;;;16.48;32.91
63399;BME280;49533;-34.520;150.798;2023-07-20T12:34:19;100461.31;;;16.49;33.11